createdAt,value
2023-03-19T00:02:24.614Z,99468.03
2023-03-19T00:04:51.907Z,99467.81
2023-03-19T00:07:18.953Z,99469.03
2023-03-19T00:09:45.822Z,99470.97
2023-03-19T00:12:14.385Z,99476.81
2023-03-19T00:14:41.506Z,99470.22
2023-03-19T00:17:08.509Z,99475.72
2023-03-19T00:19:35.606Z,99484.44
2023-03-19T00:22:02.413Z,99479.81
2023-03-19T00:24:29.436Z,99482.75
2023-03-19T00:26:56.321Z,99480.53
2023-03-19T00:29:24.905Z,99482.03
2023-03-19T00:31:51.725Z,99471.16
2023-03-19T00:34:18.645Z,99478.66
2023-03-19T00:36:46.028Z,99475.75
2023-03-19T00:39:13.021Z,99470.53
2023-03-19T00:41:39.948Z,99474.22
2023-03-19T00:44:06.872Z,99470.75
2023-03-19T00:46:35.259Z,99476.56
2023-03-19T00:49:02.093Z,99469.50
2023-03-19T00:51:29.036Z,99472.25
2023-03-19T00:53:56.136Z,99468.47
2023-03-19T00:56:22.954Z,99473.72
2023-03-19T00:58:49.751Z,99467.31
2023-03-19T01:01:18.176Z,99472.25
2023-03-19T01:03:46.736Z,99472.44
2023-03-19T01:06:13.720Z,99466.53
2023-03-19T01:08:40.784Z,99468.72
2023-03-19T01:11:10.210Z,99477.97
2023-03-19T01:13:37.142Z,99475.38
2023-03-19T01:16:05.115Z,99480.47
2023-03-19T01:18:32.107Z,99474.81
2023-03-19T01:21:02.109Z,99479.06
2023-03-19T01:23:30.200Z,99484.75
2023-03-19T01:25:57.353Z,99487.91
2023-03-19T01:28:25.877Z,99495.41
2023-03-19T01:30:53.055Z,99483.91
2023-03-19T01:33:39.966Z,99488.00
2023-03-19T01:36:34.044Z,99483.97
2023-03-19T01:39:02.779Z,99488.28
2023-03-19T01:41:29.718Z,99486.34
2023-03-19T01:44:03.492Z,99492.94
2023-03-19T01:46:40.834Z,99499.59
2023-03-19T01:49:31.496Z,99509.97
2023-03-19T01:52:34.639Z,99509.53
2023-03-19T01:55:15.680Z,99494.56
2023-03-19T01:58:21.479Z,99525.91
2023-03-19T02:01:07.755Z,99537.94
2023-03-19T02:03:41.855Z,99534.22
2023-03-19T02:06:18.918Z,99528.91
2023-03-19T02:08:49.434Z,99539.69
2023-03-19T02:11:17.968Z,99538.69
2023-03-19T02:13:45.524Z,99540.28
2023-03-19T02:16:12.709Z,99545.63
2023-03-19T02:18:41.985Z,99548.63
2023-03-19T02:21:11.554Z,99547.31
2023-03-19T02:23:49.874Z,99553.94
2023-03-19T02:26:24.446Z,99549.94
2023-03-19T02:28:53.670Z,99542.47
2023-03-19T02:31:29.352Z,99538.78
2023-03-19T02:33:59.891Z,99536.22
2023-03-19T02:36:34.332Z,99544.03
2023-03-19T02:39:05.561Z,99538.84
2023-03-19T02:41:37.345Z,99541.94
2023-03-19T02:44:06.010Z,99547.25
2023-03-19T02:46:32.983Z,99548.66
2023-03-19T02:48:59.827Z,99540.88
2023-03-19T02:51:26.587Z,99543.00
2023-03-19T02:53:53.468Z,99536.09
2023-03-19T02:56:20.226Z,99538.75
2023-03-19T02:58:48.585Z,99534.56
2023-03-19T03:01:15.466Z,99546.56
2023-03-19T03:03:42.612Z,99546.75
2023-03-19T03:06:09.724Z,99552.25
2023-03-19T03:08:37.032Z,99554.03
2023-03-19T03:11:03.940Z,99548.75
2023-03-19T03:13:31.039Z,99534.44
2023-03-19T03:15:59.296Z,99535.53
2023-03-19T03:18:26.641Z,99534.31
2023-03-19T03:20:53.448Z,99540.91
2023-03-19T03:23:20.547Z,99542.41
2023-03-19T03:25:49.470Z,99538.38
2023-03-19T03:28:16.245Z,99553.28
2023-03-19T03:30:43.148Z,99550.28
2023-03-19T03:33:12.254Z,99558.50
2023-03-19T03:35:39.682Z,99554.25
2023-03-19T03:38:06.713Z,99556.94
2023-03-19T03:40:33.786Z,99557.09
2023-03-19T03:43:00.728Z,99560.81
2023-03-19T03:45:27.771Z,99558.53
2023-03-19T03:47:54.663Z,99555.00
2023-03-19T03:50:22.818Z,99562.72
2023-03-19T03:52:52.556Z,99555.41
2023-03-19T03:55:19.396Z,99556.44
2023-03-19T03:57:46.293Z,99554.66
2023-03-19T04:00:22.000Z,99568.94
2023-03-19T04:02:48.959Z,99560.84
2023-03-19T04:05:17.147Z,99561.84
2023-03-19T04:07:45.778Z,99560.16
2023-03-19T04:10:13.173Z,99570.69
2023-03-19T04:16:31.367Z,99571.19
2023-03-19T04:18:58.657Z,99570.56
2023-03-19T04:21:25.771Z,99577.56
2023-03-19T04:23:54.024Z,99579.28
2023-03-19T04:26:20.913Z,99573.94
2023-03-19T04:28:47.692Z,99569.75
2023-03-19T04:31:14.766Z,99576.56
2023-03-19T04:33:44.558Z,99572.88
2023-03-19T04:36:12.125Z,99580.97
2023-03-19T04:38:39.059Z,99581.72
2023-03-19T04:41:07.178Z,99583.75
2023-03-19T04:43:37.186Z,99573.06
2023-03-19T04:46:05.234Z,99581.81
2023-03-19T04:48:32.367Z,99581.69
2023-03-19T04:50:59.769Z,99590.22
2023-03-19T04:53:26.586Z,99590.66
2023-03-19T04:55:53.760Z,99592.94
2023-03-19T04:58:22.551Z,99602.06
2023-03-19T05:00:56.808Z,99607.63
2023-03-19T05:03:43.650Z,99600.16
2023-03-19T05:06:10.684Z,99598.72
2023-03-19T05:08:37.736Z,99599.53
2023-03-19T05:11:04.975Z,99610.75
2023-03-19T05:13:43.391Z,99603.66
2023-03-19T05:16:10.423Z,99599.66
2023-03-19T05:18:39.442Z,99613.38
2023-03-19T05:21:11.032Z,99615.44
2023-03-19T05:23:38.401Z,99605.50
2023-03-19T05:26:08.700Z,99614.88
2023-03-19T05:29:13.102Z,99617.03
2023-03-19T05:31:52.673Z,99610.34
2023-03-19T05:34:21.242Z,99610.59
2023-03-19T05:36:49.213Z,99612.03
2023-03-19T05:39:18.699Z,99622.97
2023-03-19T05:41:45.823Z,99626.88
2023-03-19T05:44:19.316Z,99626.66
2023-03-19T05:47:11.282Z,99626.13
2023-03-19T05:49:40.931Z,99629.56
2023-03-19T05:52:08.014Z,99635.41
2023-03-19T05:54:35.278Z,99634.59
2023-03-19T05:57:07.846Z,99635.59
2023-03-19T05:59:45.864Z,99628.66
2023-03-19T06:02:24.478Z,99630.75
2023-03-19T06:04:59.221Z,99634.25
2023-03-19T06:07:29.310Z,99638.28
2023-03-19T06:09:56.785Z,99642.50
2023-03-19T06:12:23.794Z,99653.31
2023-03-19T06:15:11.673Z,99658.06
2023-03-19T06:17:44.297Z,99653.88
2023-03-19T06:20:13.351Z,99652.88
2023-03-19T06:22:41.697Z,99652.88
2023-03-19T06:25:09.377Z,99649.13
2023-03-19T06:27:37.896Z,99663.19
2023-03-19T06:30:24.080Z,99662.59
2023-03-19T06:32:51.483Z,99660.34
2023-03-19T06:35:18.908Z,99656.31
2023-03-19T06:37:48.452Z,99658.56
2023-03-19T06:40:15.901Z,99657.38
2023-03-19T06:42:45.955Z,99660.25
2023-03-19T06:45:13.867Z,99650.25
2023-03-19T06:47:42.522Z,99656.06
2023-03-19T06:50:11.486Z,99662.44
2023-03-19T06:52:38.533Z,99656.41
2023-03-19T06:55:07.374Z,99665.19
2023-03-19T06:57:34.927Z,99667.50
2023-03-19T07:00:02.326Z,99669.78
2023-03-19T07:02:29.413Z,99673.97
2023-03-19T07:04:57.581Z,99670.38
2023-03-19T07:07:24.913Z,99682.38
2023-03-19T07:09:51.938Z,99676.50
2023-03-19T07:12:18.972Z,99679.13
2023-03-19T07:14:45.708Z,99686.16
2023-03-19T07:17:12.873Z,99676.25
2023-03-19T07:19:39.808Z,99690.66
2023-03-19T07:22:08.332Z,99695.84
2023-03-19T07:24:35.174Z,99695.84
2023-03-19T07:27:02.216Z,99698.66
2023-03-19T07:29:29.151Z,99689.47
2023-03-19T07:31:56.147Z,99685.94
2023-03-19T07:34:23.303Z,99694.00
2023-03-19T07:36:50.290Z,99686.53
2023-03-19T07:39:18.969Z,99687.75
2023-03-19T07:41:46.032Z,99684.09
2023-03-19T07:44:14.951Z,99685.53
2023-03-19T07:46:42.625Z,99686.34
2023-03-19T07:49:09.711Z,99691.88
2023-03-19T07:51:36.972Z,99688.63
2023-03-19T07:54:04.343Z,99693.59
2023-03-19T07:56:33.159Z,99690.03
2023-03-19T07:59:00.045Z,99699.31
2023-03-19T08:01:27.123Z,99689.78
2023-03-19T08:03:54.114Z,99692.59
2023-03-19T08:06:20.990Z,99701.13
2023-03-19T08:08:47.806Z,99703.78
2023-03-19T08:11:14.820Z,99702.66
2023-03-19T08:13:43.553Z,99699.41
2023-03-19T08:16:11.229Z,99696.09
2023-03-19T08:18:48.082Z,99695.53
2023-03-19T08:21:17.321Z,99688.06
2023-03-19T08:23:46.077Z,99692.06
2023-03-19T08:26:13.139Z,99687.59
2023-03-19T08:28:43.825Z,99688.63
2023-03-19T08:31:14.238Z,99695.69
2023-03-19T08:33:44.066Z,99683.94
2023-03-19T08:36:15.838Z,99677.66
2023-03-19T08:38:45.920Z,99687.09
2023-03-19T08:41:16.452Z,99683.66
2023-03-19T08:43:47.448Z,99688.00
2023-03-19T08:46:14.573Z,99677.13
2023-03-19T08:48:42.265Z,99692.31
2023-03-19T08:51:12.504Z,99694.16
2023-03-19T08:53:39.880Z,99694.84
2023-03-19T08:56:08.783Z,99684.81
2023-03-19T08:58:35.930Z,99693.84
2023-03-19T09:01:09.061Z,99694.41
2023-03-19T09:03:36.624Z,99699.16
2023-03-19T09:06:07.239Z,99700.69
2023-03-19T09:08:35.438Z,99699.41
2023-03-19T09:11:03.342Z,99706.31
2023-03-19T09:13:30.508Z,99698.63
2023-03-19T09:16:00.599Z,99699.19
2023-03-19T09:18:30.326Z,99691.84
2023-03-19T09:20:57.518Z,99702.34
2023-03-19T09:23:25.103Z,99704.00
2023-03-19T09:25:55.287Z,99700.59
2023-03-19T09:28:25.610Z,99705.34
2023-03-19T09:30:53.161Z,99700.22
2023-03-19T09:33:20.942Z,99699.13
2023-03-19T09:35:57.291Z,99699.38
2023-03-19T09:38:24.788Z,99692.94
2023-03-19T09:41:09.369Z,99687.22
2023-03-19T09:43:59.966Z,99679.72
2023-03-19T09:46:42.771Z,99684.22
2023-03-19T09:49:20.982Z,99683.41
2023-03-19T09:51:54.884Z,99684.34
2023-03-19T09:54:34.630Z,99691.06
2023-03-19T09:57:03.097Z,99680.41
2023-03-19T09:59:30.273Z,99676.13
2023-03-19T10:02:28.918Z,99673.16
2023-03-19T10:05:11.731Z,99676.94
2023-03-19T10:08:11.701Z,99674.91
2023-03-19T10:10:55.747Z,99677.78
2023-03-19T10:13:44.563Z,99680.72
2023-03-19T10:16:21.382Z,99674.22
2023-03-19T10:18:51.561Z,99665.19
2023-03-19T10:21:27.173Z,99659.97
2023-03-19T10:24:01.209Z,99665.97
2023-03-19T10:26:31.805Z,99666.03
2023-03-19T10:29:07.320Z,99662.72
2023-03-19T10:31:52.734Z,99659.53
2023-03-19T10:34:30.296Z,99654.91
2023-03-19T10:37:05.626Z,99660.81
2023-03-19T10:39:38.018Z,99661.72
2023-03-19T10:42:44.604Z,99651.88
2023-03-19T10:45:24.717Z,99651.34
2023-03-19T10:47:52.512Z,99656.56
2023-03-19T10:50:22.692Z,99657.75
2023-03-19T10:53:00.438Z,99648.94
2023-03-19T10:55:31.289Z,99653.78
2023-03-19T10:58:05.114Z,99643.94
2023-03-19T11:00:34.369Z,99647.91
2023-03-19T11:03:03.497Z,99646.03
2023-03-19T11:05:32.331Z,99631.31
2023-03-19T11:08:03.136Z,99636.50
2023-03-19T11:10:35.547Z,99632.22
2023-03-19T11:13:06.844Z,99635.09
2023-03-19T11:15:37.879Z,99634.81
2023-03-19T11:18:20.872Z,99631.88
2023-03-19T11:20:55.772Z,99634.25
2023-03-19T11:23:28.921Z,99626.09
2023-03-19T11:26:01.318Z,99621.13
2023-03-19T11:28:28.657Z,99624.22
2023-03-19T11:31:06.916Z,99625.25
2023-03-19T11:33:52.949Z,99628.44
2023-03-19T11:36:28.795Z,99628.66
2023-03-19T11:39:21.340Z,99619.56
2023-03-19T11:42:25.708Z,99614.16
2023-03-19T11:45:08.029Z,99613.06
2023-03-19T11:47:52.299Z,99604.75
2023-03-19T11:50:39.568Z,99610.19
2023-03-19T11:53:24.448Z,99607.22
2023-03-19T11:56:08.666Z,99608.44
2023-03-19T11:59:26.136Z,99607.75
2023-03-19T12:02:30.772Z,99598.16
2023-03-19T12:05:20.655Z,99600.94
2023-03-19T12:08:06.923Z,99601.19
2023-03-19T12:10:52.080Z,99589.88
2023-03-19T12:13:42.690Z,99595.13
2023-03-19T12:16:24.277Z,99585.50
2023-03-19T12:19:28.922Z,99592.69
2023-03-19T12:22:12.558Z,99603.13
2023-03-19T12:25:09.946Z,99595.38
2023-03-19T12:27:47.312Z,99600.84
2023-03-19T12:30:34.892Z,99595.22
2023-03-19T12:33:24.786Z,99591.97
2023-03-19T12:35:56.928Z,99597.94
2023-03-19T12:38:36.596Z,99603.03
2023-03-19T12:41:08.967Z,99589.78
2023-03-19T12:43:45.035Z,99598.06
2023-03-19T12:46:18.407Z,99599.16
2023-03-19T12:48:53.874Z,99602.28
2023-03-19T12:51:27.370Z,99595.63
2023-03-19T12:54:00.525Z,99600.09
2023-03-19T12:56:39.098Z,99602.91
2023-03-19T12:59:19.228Z,99612.44
2023-03-19T13:01:53.405Z,99598.81
2023-03-19T13:04:31.020Z,99607.84
2023-03-19T13:07:07.357Z,99616.84
2023-03-19T13:09:40.994Z,99620.00
2023-03-19T13:12:18.227Z,99628.16
2023-03-19T13:14:55.882Z,99631.13
2023-03-19T13:17:33.983Z,99630.91
2023-03-19T13:20:15.547Z,99633.22
2023-03-19T13:22:53.354Z,99620.88
2023-03-19T13:25:29.410Z,99612.22
2023-03-19T13:27:56.712Z,99617.28
2023-03-19T13:30:24.949Z,99620.28
2023-03-19T13:33:03.326Z,99618.31
2023-03-19T13:35:43.373Z,99624.03
2023-03-19T13:38:24.350Z,99622.78
2023-03-19T13:40:53.821Z,99620.03
2023-03-19T13:43:42.437Z,99623.13
2023-03-19T13:46:41.936Z,99626.44
2023-03-19T13:49:29.393Z,99623.22
2023-03-19T13:52:01.376Z,99626.38
2023-03-19T13:54:39.687Z,99626.44
2023-03-19T13:57:31.850Z,99620.00
2023-03-19T14:00:55.866Z,99616.44
2023-03-19T14:03:29.422Z,99613.50
2023-03-19T14:05:59.720Z,99617.00
2023-03-19T14:08:34.159Z,99618.25
2023-03-19T14:11:04.733Z,99619.75
2023-03-19T14:13:40.227Z,99622.13
2023-03-19T14:16:26.207Z,99624.50
2023-03-19T14:18:57.689Z,99613.50
2023-03-19T14:21:46.574Z,99614.84
2023-03-19T14:24:56.391Z,99620.78
2023-03-19T14:27:28.393Z,99629.19
2023-03-19T14:30:00.176Z,99639.09
2023-03-19T14:32:36.864Z,99629.19
2023-03-19T14:35:06.681Z,99638.22
2023-03-19T14:37:46.489Z,99633.66
2023-03-19T14:40:20.660Z,99648.72
2023-03-19T14:43:04.148Z,99648.94
2023-03-19T14:45:50.832Z,99658.13
2023-03-19T14:49:20.973Z,99643.19
2023-03-19T14:52:00.544Z,99641.13
2023-03-19T14:54:42.124Z,99643.38
2023-03-19T14:57:18.158Z,99632.28
2023-03-19T14:59:49.595Z,99619.16
2023-03-19T15:02:35.110Z,99640.44
2023-03-19T15:05:05.625Z,99639.34
2023-03-19T15:07:37.941Z,99641.22
2023-03-19T15:10:13.655Z,99646.06
2023-03-19T15:13:20.595Z,99653.03
2023-03-19T15:16:25.321Z,99645.97
2023-03-19T15:18:52.585Z,99640.53
2023-03-19T15:21:22.328Z,99637.69
2023-03-19T15:23:49.675Z,99641.34
2023-03-19T15:26:29.753Z,99641.34
2023-03-19T15:28:58.569Z,99637.09
2023-03-19T15:31:50.963Z,99640.75
2023-03-19T15:34:23.084Z,99642.03
2023-03-19T15:36:54.966Z,99650.19
2023-03-19T15:39:28.252Z,99645.63
2023-03-19T15:41:57.161Z,99650.66
2023-03-19T15:44:33.756Z,99650.66
2023-03-19T15:47:06.367Z,99652.22
2023-03-19T15:49:39.695Z,99648.44
2023-03-19T15:52:15.627Z,99650.53
2023-03-19T15:54:49.641Z,99647.28
2023-03-19T15:57:18.149Z,99656.16
2023-03-19T15:59:47.288Z,99652.75
2023-03-19T16:02:31.441Z,99668.34
2023-03-19T16:05:24.857Z,99673.06
2023-03-19T16:07:53.314Z,99672.50
2023-03-19T16:10:35.363Z,99672.41
2023-03-19T16:13:04.642Z,99671.09
2023-03-19T16:15:43.258Z,99676.03
2023-03-19T16:18:25.777Z,99682.69
2023-03-19T16:21:08.693Z,99678.06
2023-03-19T16:23:40.620Z,99684.53
2023-03-19T16:26:18.990Z,99692.63
2023-03-19T16:29:02.722Z,99686.81
2023-03-19T16:31:41.170Z,99693.91
2023-03-19T16:34:25.928Z,99690.03
2023-03-19T16:36:52.830Z,99695.63
2023-03-19T16:39:32.929Z,99693.84
2023-03-19T16:42:28.950Z,99699.44
2023-03-19T16:44:56.901Z,99699.69
2023-03-19T16:47:25.075Z,99698.38
2023-03-19T16:49:54.700Z,99708.03
2023-03-19T16:52:29.175Z,99709.03
2023-03-19T16:54:59.115Z,99715.44
2023-03-19T16:57:27.304Z,99718.28
2023-03-19T16:59:54.223Z,99727.69
2023-03-19T17:02:21.010Z,99722.53
2023-03-19T17:04:49.305Z,99733.44
2023-03-19T17:07:21.828Z,99730.19
2023-03-19T17:09:48.683Z,99728.72
2023-03-19T17:12:17.439Z,99732.47
2023-03-19T17:14:44.734Z,99742.81
2023-03-19T17:17:19.721Z,99737.50
2023-03-19T17:19:49.069Z,99739.72
2023-03-19T17:22:16.383Z,99755.00
2023-03-19T17:24:44.892Z,99756.38
2023-03-19T17:27:12.052Z,99759.00
2023-03-19T17:29:38.982Z,99767.38
2023-03-19T17:32:17.648Z,99764.56
2023-03-19T17:34:44.962Z,99760.66
2023-03-19T17:37:14.245Z,99762.81
2023-03-19T17:39:41.197Z,99763.47
2023-03-19T17:42:18.646Z,99767.19
2023-03-19T17:44:45.957Z,99773.88
2023-03-19T17:47:13.347Z,99773.13
2023-03-19T17:49:40.373Z,99777.53
2023-03-19T17:52:15.997Z,99776.47
2023-03-19T17:54:43.190Z,99775.91
2023-03-19T17:57:13.514Z,99788.75
2023-03-19T17:59:40.841Z,99788.78
2023-03-19T18:02:24.363Z,99802.03
2023-03-19T18:04:52.566Z,99808.97
2023-03-19T18:07:21.105Z,99808.69
2023-03-19T18:09:48.050Z,99798.19
2023-03-19T18:12:14.793Z,99807.59
2023-03-19T18:14:42.057Z,99809.94
2023-03-19T18:17:15.225Z,99810.97
2023-03-19T18:19:48.533Z,99811.63
2023-03-19T18:22:18.483Z,99812.91
2023-03-19T18:24:51.505Z,99819.13
2023-03-19T18:27:25.202Z,99817.69
2023-03-19T18:29:54.675Z,99828.50
2023-03-19T18:32:32.167Z,99833.22
2023-03-19T18:35:00.234Z,99833.34
2023-03-19T18:37:30.534Z,99829.09
2023-03-19T18:40:02.138Z,99826.97
2023-03-19T18:42:28.964Z,99831.81
2023-03-19T18:44:55.787Z,99834.47
2023-03-19T18:47:23.004Z,99832.19
2023-03-19T18:49:49.817Z,99840.41
2023-03-19T18:52:19.504Z,99841.84
2023-03-19T18:54:46.704Z,99846.16
2023-03-19T18:57:18.197Z,99843.19
2023-03-19T18:59:46.068Z,99833.56
2023-03-19T19:02:30.168Z,99831.47
2023-03-19T19:04:57.013Z,99842.13
2023-03-19T19:07:24.002Z,99840.63
2023-03-19T19:09:50.883Z,99843.06
2023-03-19T19:12:19.978Z,99848.03
2023-03-19T19:14:48.217Z,99845.78
2023-03-19T19:17:20.555Z,99851.84
2023-03-19T19:19:47.821Z,99853.13
2023-03-19T19:22:16.709Z,99855.34
2023-03-19T19:24:50.931Z,99851.38
2023-03-19T19:27:24.740Z,99857.66
2023-03-19T19:29:53.115Z,99860.06
2023-03-19T19:32:23.394Z,99850.63
2023-03-19T19:34:50.517Z,99861.91
2023-03-19T19:37:21.281Z,99856.56
2023-03-19T19:39:56.360Z,99872.84
2023-03-19T19:42:26.233Z,99878.63
2023-03-19T19:44:56.619Z,99872.41
2023-03-19T19:47:25.535Z,99866.97
2023-03-19T19:49:52.485Z,99865.81
2023-03-19T19:52:19.892Z,99872.44
2023-03-19T19:54:47.716Z,99876.44
2023-03-19T19:57:19.072Z,99886.47
2023-03-19T19:59:49.216Z,99875.66
2023-03-19T20:02:21.277Z,99879.88
2023-03-19T20:04:48.633Z,99881.94
2023-03-19T20:07:15.569Z,99882.69
2023-03-19T20:09:43.015Z,99878.34
2023-03-19T20:12:20.522Z,99887.03
2023-03-19T20:14:51.491Z,99894.78
2023-03-19T20:17:19.829Z,99907.69
2023-03-19T20:19:47.745Z,99903.78
2023-03-19T20:22:14.675Z,99916.28
2023-03-19T20:24:45.119Z,99916.06
2023-03-19T20:27:21.814Z,99914.78
2023-03-19T20:29:53.855Z,99912.25
2023-03-19T20:32:33.373Z,99921.56
2023-03-19T20:35:15.819Z,99914.44
2023-03-19T20:37:47.490Z,99917.38
2023-03-19T20:40:18.739Z,99922.31
2023-03-19T20:42:48.920Z,99906.72
2023-03-19T20:45:24.949Z,99926.91
2023-03-19T20:47:52.899Z,99919.00
2023-03-19T20:50:24.167Z,99930.25
2023-03-19T20:52:52.335Z,99933.84
2023-03-19T20:55:23.759Z,99948.44
2023-03-19T20:57:51.891Z,99940.72
2023-03-19T21:00:26.317Z,99934.44
2023-03-19T21:02:56.066Z,99935.50
2023-03-19T21:05:29.281Z,99941.28
2023-03-19T21:08:00.155Z,99935.47
2023-03-19T21:10:42.297Z,99932.72
2023-03-19T21:13:14.195Z,99937.91
2023-03-19T21:15:43.922Z,99944.63
2023-03-19T21:18:11.465Z,99944.47
2023-03-19T21:20:43.564Z,99950.34
2023-03-19T21:23:20.806Z,99959.50
2023-03-19T21:25:48.684Z,99958.03
2023-03-19T21:28:25.924Z,99961.56
2023-03-19T21:30:57.237Z,99960.50
2023-03-19T21:33:37.436Z,99961.53
2023-03-19T21:36:07.079Z,99965.25
2023-03-19T21:38:34.161Z,99962.19
2023-03-19T21:41:05.309Z,99974.91
2023-03-19T21:43:41.131Z,99966.19
2023-03-19T21:46:23.610Z,99971.38
2023-03-19T21:48:51.693Z,99971.19
2023-03-19T21:51:18.902Z,99976.97
2023-03-19T21:53:46.435Z,99971.78
2023-03-19T21:56:21.531Z,99978.00
2023-03-19T21:58:50.175Z,99977.81
2023-03-19T22:01:22.348Z,99989.88
2023-03-19T22:03:50.501Z,99989.06
2023-03-19T22:06:17.374Z,99987.00
2023-03-19T22:08:44.657Z,99986.16
2023-03-19T22:11:19.523Z,99986.53
2023-03-19T22:13:47.858Z,99990.06
2023-03-19T22:16:21.249Z,99994.66
2023-03-19T22:18:48.719Z,99996.94
2023-03-19T22:21:17.979Z,100003.63
2023-03-19T22:23:50.361Z,100009.63
2023-03-19T22:26:36.586Z,100003.81
2023-03-19T22:29:15.701Z,100004.22
2023-03-19T22:31:44.741Z,100006.53
2023-03-19T22:34:15.348Z,100011.53
2023-03-19T22:36:42.978Z,100004.03
2023-03-19T22:39:09.832Z,100017.34
2023-03-19T22:41:40.986Z,100018.16
2023-03-19T22:44:17.007Z,100026.44
2023-03-19T22:46:45.427Z,100018.53
2023-03-19T22:49:16.408Z,100022.50
2023-03-19T22:51:43.843Z,100024.81
2023-03-19T22:54:11.689Z,100023.38
2023-03-19T22:56:38.843Z,100023.34
2023-03-19T22:59:08.524Z,100026.44
2023-03-19T23:01:40.750Z,100024.16
2023-03-19T23:04:21.038Z,100026.25
2023-03-19T23:06:49.300Z,100026.88
2023-03-19T23:09:19.642Z,100027.69
2023-03-19T23:11:47.118Z,100020.03
2023-03-19T23:14:26.332Z,100026.47
2023-03-19T23:19:29.886Z,100028.97
2023-03-19T23:21:59.189Z,100022.09
2023-03-19T23:24:27.219Z,100015.84
2023-03-19T23:26:56.918Z,100025.78
2023-03-19T23:29:30.292Z,100015.22
2023-03-19T23:31:57.160Z,100008.78
2023-03-19T23:34:25.890Z,100007.31
2023-03-19T23:36:53.185Z,100012.94
2023-03-19T23:39:20.055Z,100011.28
2023-03-19T23:41:52.002Z,100011.94
2023-03-19T23:44:19.960Z,100021.50
2023-03-19T23:46:50.012Z,100010.06
2023-03-19T23:49:27.744Z,100020.88
2023-03-19T23:51:55.578Z,100018.16
2023-03-19T23:54:30.554Z,100025.66
2023-03-19T23:57:01.253Z,100021.28
2023-03-19T23:59:34.119Z,100020.84
